createdAt,value
2024-04-30T00:01:10.982Z,15.68
2024-04-30T00:03:41.964Z,15.63
2024-04-30T00:06:10.224Z,15.51
2024-04-30T00:08:38.246Z,15.36
2024-04-30T00:11:05.896Z,15.33
2024-04-30T00:13:33.461Z,15.36
2024-04-30T00:16:04.651Z,15.33
2024-04-30T00:18:32.258Z,15.33
2024-04-30T00:20:59.871Z,15.34
2024-04-30T00:23:27.504Z,15.39
2024-04-30T00:25:55.000Z,15.44
2024-04-30T00:28:22.571Z,15.38
2024-04-30T00:30:50.110Z,15.35
2024-04-30T00:33:18.047Z,15.28
2024-04-30T00:35:45.542Z,15.26
2024-04-30T00:38:13.195Z,15.19
2024-04-30T00:40:42.111Z,15.12
2024-04-30T00:43:09.846Z,15.16
2024-04-30T00:45:37.394Z,15.17
2024-04-30T00:48:06.298Z,15.22
2024-04-30T00:50:34.696Z,15.21
2024-04-30T00:53:02.932Z,15.18
2024-04-30T00:55:30.664Z,15.14
2024-04-30T00:57:58.363Z,15.17
2024-04-30T01:00:26.050Z,15.14
2024-04-30T01:02:53.650Z,15.10
2024-04-30T01:05:21.137Z,15.09
2024-04-30T01:07:48.705Z,15.16
2024-04-30T01:10:18.051Z,15.18
2024-04-30T01:12:45.722Z,15.14
2024-04-30T01:15:14.147Z,15.07
2024-04-30T01:17:41.807Z,14.97
2024-04-30T01:20:09.862Z,14.89
2024-04-30T01:22:41.730Z,14.79
2024-04-30T01:25:09.490Z,14.79
2024-04-30T01:27:36.990Z,14.74
2024-04-30T01:30:04.952Z,14.73
2024-04-30T01:32:32.756Z,14.87
2024-04-30T01:35:00.476Z,14.96
2024-04-30T01:37:28.240Z,14.93
2024-04-30T01:39:55.848Z,15.03
2024-04-30T01:42:23.453Z,15.13
2024-04-30T01:44:51.053Z,15.16
2024-04-30T01:47:18.569Z,15.18
2024-04-30T01:49:46.121Z,15.18
2024-04-30T01:52:13.734Z,15.12
2024-04-30T01:54:41.321Z,15.03
2024-04-30T01:57:08.855Z,15.04
2024-04-30T01:59:36.464Z,15.01
2024-04-30T02:02:04.234Z,15.01
2024-04-30T02:04:38.741Z,14.92
2024-04-30T02:07:13.684Z,14.90
2024-04-30T02:09:41.186Z,14.87
2024-04-30T02:12:08.767Z,14.88
2024-04-30T02:14:36.294Z,14.89
2024-04-30T02:17:03.989Z,14.89
2024-04-30T02:19:31.714Z,14.88
2024-04-30T02:21:59.397Z,14.90
2024-04-30T02:24:27.097Z,14.80
2024-04-30T02:26:54.704Z,14.89
2024-04-30T02:29:22.717Z,14.88
2024-04-30T02:32:08.933Z,14.91
2024-04-30T02:34:36.504Z,14.85
2024-04-30T02:37:04.275Z,14.79
2024-04-30T02:39:31.954Z,14.73
2024-04-30T02:41:59.461Z,14.65
2024-04-30T02:44:27.083Z,14.62
2024-04-30T02:46:54.618Z,14.53
2024-04-30T02:49:22.210Z,14.48
2024-04-30T02:51:49.742Z,14.37
2024-04-30T02:54:17.258Z,14.33
2024-04-30T02:56:44.846Z,14.49
2024-04-30T02:59:12.516Z,14.45
2024-04-30T03:01:40.089Z,14.55
2024-04-30T03:04:07.967Z,14.57
2024-04-30T03:06:38.839Z,14.58
2024-04-30T03:09:07.438Z,14.57
2024-04-30T03:11:34.957Z,14.51
2024-04-30T03:14:02.610Z,14.51
2024-04-30T03:16:30.239Z,14.45
2024-04-30T03:18:57.889Z,14.38
2024-04-30T03:21:25.420Z,14.27
2024-04-30T03:23:52.993Z,14.30
2024-04-30T03:26:20.541Z,14.30
2024-04-30T03:28:48.147Z,14.23
2024-04-30T03:31:17.413Z,14.26
2024-04-30T03:33:45.212Z,14.18
2024-04-30T03:36:12.791Z,14.14
2024-04-30T03:38:43.400Z,14.17
2024-04-30T03:41:13.301Z,14.15
2024-04-30T03:43:40.962Z,14.05
2024-04-30T03:46:15.378Z,14.20
2024-04-30T03:48:43.407Z,14.09
2024-04-30T03:51:10.960Z,14.26
2024-04-30T03:53:38.520Z,14.43
2024-04-30T03:56:06.317Z,14.50
2024-04-30T03:58:34.043Z,14.70
2024-04-30T04:01:01.883Z,14.90
2024-04-30T04:03:29.600Z,15.13
2024-04-30T04:05:57.493Z,15.40
2024-04-30T04:08:25.170Z,15.72
2024-04-30T04:11:11.644Z,16.12
2024-04-30T04:13:57.902Z,16.40
2024-04-30T04:16:25.538Z,16.93
2024-04-30T04:18:53.075Z,17.30
2024-04-30T04:21:23.464Z,17.71
2024-04-30T04:23:51.829Z,18.19
2024-04-30T04:26:19.385Z,18.25
2024-04-30T04:28:46.993Z,18.65
2024-04-30T04:31:14.568Z,18.79
2024-04-30T04:33:42.160Z,19.20
2024-04-30T04:36:18.642Z,19.23
2024-04-30T04:38:46.231Z,19.88
2024-04-30T04:41:13.801Z,19.91
2024-04-30T04:43:41.441Z,20.47
2024-04-30T04:46:08.999Z,20.82
2024-04-30T04:48:36.643Z,21.12
2024-04-30T04:51:05.982Z,21.47
2024-04-30T04:53:33.573Z,21.45
2024-04-30T04:56:01.126Z,21.99
2024-04-30T04:58:28.771Z,22.19
2024-04-30T05:00:56.448Z,22.06
2024-04-30T05:03:24.150Z,21.81
2024-04-30T05:05:51.750Z,22.10
2024-04-30T05:08:19.447Z,22.39
2024-04-30T05:10:47.084Z,22.65
2024-04-30T05:13:14.826Z,22.79
2024-04-30T05:15:42.371Z,22.52
2024-04-30T05:18:10.090Z,22.10
2024-04-30T05:20:37.635Z,21.95
2024-04-30T05:23:05.400Z,22.16
2024-04-30T05:25:32.936Z,22.11
2024-04-30T05:28:04.258Z,22.36
2024-04-30T05:30:31.973Z,22.55
2024-04-30T05:35:27.032Z,22.68
2024-04-30T05:37:54.738Z,23.12
2024-04-30T05:40:22.388Z,23.15
2024-04-30T05:42:49.980Z,22.90
2024-04-30T05:45:17.631Z,23.13
2024-04-30T05:47:45.256Z,23.09
2024-04-30T05:50:13.797Z,23.17
2024-04-30T05:52:41.368Z,23.15
2024-04-30T05:55:09.432Z,22.77
2024-04-30T05:57:38.641Z,22.65
2024-04-30T06:00:07.273Z,22.24
2024-04-30T06:02:35.103Z,22.40
2024-04-30T06:05:03.146Z,22.49
2024-04-30T06:07:30.861Z,22.52
2024-04-30T06:10:01.448Z,22.25
2024-04-30T06:12:29.144Z,22.26
2024-04-30T06:14:56.695Z,22.81
2024-04-30T06:17:24.382Z,23.28
2024-04-30T06:19:53.922Z,23.41
2024-04-30T06:22:22.356Z,23.55
2024-04-30T06:24:50.258Z,23.55
2024-04-30T06:27:17.992Z,23.59
2024-04-30T06:29:46.397Z,23.32
2024-04-30T06:32:14.285Z,23.76
2024-04-30T06:34:43.508Z,23.75
2024-04-30T06:37:11.629Z,23.90
2024-04-30T06:39:39.360Z,23.84
2024-04-30T06:42:07.146Z,23.31
2024-04-30T06:44:35.055Z,23.56
2024-04-30T06:47:02.661Z,23.89
2024-04-30T06:49:30.180Z,23.75
2024-04-30T06:51:57.783Z,23.88
2024-04-30T06:54:25.390Z,23.87
2024-04-30T06:56:53.000Z,23.93
2024-04-30T06:59:20.600Z,24.13
2024-04-30T07:01:48.291Z,24.04
2024-04-30T07:04:15.969Z,24.07
2024-04-30T07:06:44.152Z,24.33
2024-04-30T07:09:11.779Z,24.48
2024-04-30T07:11:39.460Z,24.43
2024-04-30T07:14:07.116Z,24.39
2024-04-30T07:16:48.513Z,24.49
2024-04-30T07:19:23.808Z,24.47
2024-04-30T07:21:51.458Z,24.98
2024-04-30T07:24:19.068Z,24.73
2024-04-30T07:26:46.681Z,25.49
2024-04-30T07:29:14.340Z,25.62
2024-04-30T07:31:41.927Z,25.07
2024-04-30T07:34:09.665Z,24.90
2024-04-30T07:36:37.194Z,25.21
2024-04-30T07:39:05.212Z,24.53
2024-04-30T07:41:32.759Z,24.95
2024-04-30T07:44:00.475Z,24.35
2024-04-30T07:46:28.190Z,24.55
2024-04-30T07:48:55.879Z,24.20
2024-04-30T07:51:23.445Z,24.16
2024-04-30T07:53:51.073Z,23.85
2024-04-30T07:56:18.622Z,24.07
2024-04-30T07:58:46.362Z,24.11
2024-04-30T08:01:14.666Z,23.70
2024-04-30T08:03:43.072Z,24.22
2024-04-30T08:06:18.592Z,24.65
2024-04-30T08:08:48.607Z,24.98
2024-04-30T08:11:16.539Z,25.18
2024-04-30T08:13:45.615Z,24.61
2024-04-30T08:16:14.139Z,24.37
2024-04-30T08:18:41.836Z,24.35
2024-04-30T08:21:09.400Z,24.64
2024-04-30T08:23:37.103Z,23.71
2024-04-30T08:26:04.890Z,23.80
2024-04-30T08:28:32.464Z,24.23
2024-04-30T08:31:00.423Z,24.18
2024-04-30T08:33:28.450Z,23.92
2024-04-30T08:35:56.044Z,23.97
2024-04-30T08:38:23.743Z,23.82
2024-04-30T08:40:51.429Z,24.43
2024-04-30T08:43:19.747Z,24.41
2024-04-30T08:45:48.168Z,24.51
2024-04-30T08:48:17.722Z,24.88
2024-04-30T08:50:47.223Z,24.84
2024-04-30T08:53:17.172Z,25.14
2024-04-30T08:55:46.613Z,25.03
2024-04-30T08:58:14.515Z,25.06
2024-04-30T09:00:42.156Z,25.27
2024-04-30T09:03:10.165Z,25.66
2024-04-30T09:05:38.778Z,25.57
2024-04-30T09:08:06.720Z,26.23
2024-04-30T09:10:36.129Z,26.34
2024-04-30T09:13:04.107Z,26.56
2024-04-30T09:15:31.771Z,26.30
2024-04-30T09:18:09.534Z,25.85
2024-04-30T09:20:47.246Z,25.69
2024-04-30T09:23:25.904Z,25.28
2024-04-30T09:25:53.880Z,24.67
2024-04-30T09:28:22.232Z,24.83
2024-04-30T09:31:00.396Z,24.78
2024-04-30T09:33:29.479Z,24.92
2024-04-30T09:36:06.716Z,24.69
2024-04-30T09:38:39.765Z,25.03
2024-04-30T09:41:11.851Z,25.16
2024-04-30T09:43:41.153Z,24.98
2024-04-30T09:46:09.523Z,25.17
2024-04-30T09:48:39.983Z,25.28
2024-04-30T09:51:13.440Z,25.24
2024-04-30T09:53:42.076Z,25.45
2024-04-30T09:56:10.340Z,25.66
2024-04-30T09:58:38.680Z,26.03
2024-04-30T10:01:11.554Z,25.86
2024-04-30T10:03:41.254Z,25.70
2024-04-30T10:06:10.384Z,26.35
2024-04-30T10:08:40.756Z,26.44
2024-04-30T10:11:09.029Z,26.59
2024-04-30T10:13:48.275Z,26.45
2024-04-30T10:16:17.350Z,26.30
2024-04-30T10:18:45.574Z,26.12
2024-04-30T10:21:13.886Z,25.68
2024-04-30T10:23:45.368Z,25.82
2024-04-30T10:26:15.234Z,25.79
2024-04-30T10:28:43.142Z,25.81
2024-04-30T10:31:18.664Z,26.22
2024-04-30T10:33:46.984Z,26.10
2024-04-30T10:36:16.298Z,25.98
2024-04-30T10:38:44.198Z,26.21
2024-04-30T10:41:11.882Z,25.56
2024-04-30T10:43:39.659Z,25.84
2024-04-30T10:46:16.762Z,26.18
2024-04-30T10:48:51.764Z,26.29
2024-04-30T10:51:20.900Z,26.52
2024-04-30T10:53:49.681Z,26.47
2024-04-30T10:56:18.936Z,26.35
2024-04-30T10:58:59.278Z,26.64
2024-04-30T11:01:29.155Z,26.46
2024-04-30T11:04:12.956Z,26.35
2024-04-30T11:06:48.501Z,26.16
2024-04-30T11:09:16.682Z,26.04
2024-04-30T11:11:50.801Z,26.41
2024-04-30T11:14:25.113Z,26.61
2024-04-30T11:16:55.602Z,26.60
2024-04-30T11:19:24.112Z,26.59
2024-04-30T11:21:54.223Z,26.65
2024-04-30T11:24:21.926Z,26.70
2024-04-30T11:26:50.873Z,26.75
2024-04-30T11:31:49.604Z,26.94
2024-04-30T11:34:17.292Z,27.14
2024-04-30T11:36:45.197Z,27.15
2024-04-30T11:39:14.122Z,27.12
2024-04-30T11:41:48.805Z,26.92
2024-04-30T11:44:24.188Z,26.86
2024-04-30T11:46:51.864Z,27.01
2024-04-30T11:49:19.694Z,26.78
2024-04-30T11:51:47.308Z,26.98
2024-04-30T11:54:14.989Z,27.01
2024-04-30T11:56:42.684Z,27.01
2024-04-30T11:59:10.394Z,27.08
2024-04-30T12:01:38.126Z,27.53
2024-04-30T12:04:06.047Z,27.56
2024-04-30T12:06:36.499Z,26.65
2024-04-30T12:09:05.995Z,27.22
2024-04-30T12:11:38.790Z,27.58
2024-04-30T12:14:06.622Z,27.55
2024-04-30T12:16:34.325Z,27.27
2024-04-30T12:19:02.678Z,27.48
2024-04-30T12:21:30.372Z,27.28
2024-04-30T12:23:58.109Z,27.06
2024-04-30T12:26:25.712Z,26.99
2024-04-30T12:28:53.374Z,27.01
2024-04-30T12:31:21.035Z,26.86
2024-04-30T12:33:48.749Z,26.86
2024-04-30T12:36:16.459Z,27.16
2024-04-30T12:38:44.113Z,27.26
2024-04-30T12:41:11.810Z,27.09
2024-04-30T12:43:39.852Z,27.36
2024-04-30T12:46:07.661Z,27.60
2024-04-30T12:48:36.120Z,27.64
2024-04-30T12:51:03.938Z,27.34
2024-04-30T12:53:31.630Z,27.65
2024-04-30T12:55:59.399Z,27.73
2024-04-30T12:58:27.256Z,27.52
2024-04-30T13:00:55.177Z,27.67
2024-04-30T13:03:22.977Z,27.43
2024-04-30T13:05:51.054Z,27.38
2024-04-30T13:08:19.429Z,27.36
2024-04-30T13:10:47.091Z,27.00
2024-04-30T13:13:15.220Z,26.98
2024-04-30T13:15:42.807Z,26.62
2024-04-30T13:18:10.472Z,26.83
2024-04-30T13:20:39.651Z,27.11
2024-04-30T13:23:07.408Z,26.97
2024-04-30T13:25:35.049Z,26.99
2024-04-30T13:28:02.826Z,26.95
2024-04-30T13:30:30.390Z,26.90
2024-04-30T13:32:58.225Z,27.03
2024-04-30T13:35:25.911Z,27.16
2024-04-30T13:37:53.732Z,26.80
2024-04-30T13:40:21.449Z,26.86
2024-04-30T13:42:49.416Z,27.05
2024-04-30T13:45:17.122Z,27.00
2024-04-30T13:47:45.191Z,27.16
2024-04-30T13:50:12.914Z,27.21
2024-04-30T13:52:40.588Z,27.11
2024-04-30T13:55:08.364Z,26.93
2024-04-30T13:57:36.126Z,27.00
2024-04-30T14:00:06.663Z,26.98
2024-04-30T14:02:38.522Z,26.83
2024-04-30T14:05:06.717Z,26.34
2024-04-30T14:07:34.398Z,26.37
2024-04-30T14:10:02.415Z,26.47
2024-04-30T14:12:30.030Z,26.69
2024-04-30T14:14:57.854Z,26.87
2024-04-30T14:17:25.541Z,26.71
2024-04-30T14:19:53.363Z,26.70
2024-04-30T14:22:21.116Z,26.74
2024-04-30T14:24:48.769Z,26.65
2024-04-30T14:27:16.365Z,26.63
2024-04-30T14:29:45.603Z,26.67
2024-04-30T14:32:13.301Z,26.70
2024-04-30T14:34:41.155Z,26.41
2024-04-30T14:37:08.886Z,26.24
2024-04-30T14:39:36.654Z,26.49
2024-04-30T14:42:04.346Z,26.29
2024-04-30T14:44:32.030Z,26.38
2024-04-30T14:46:59.628Z,26.60
2024-04-30T14:49:27.260Z,26.29
2024-04-30T14:51:54.851Z,26.47
2024-04-30T14:54:22.628Z,26.24
2024-04-30T14:56:52.514Z,26.29
2024-04-30T14:59:23.138Z,26.17
2024-04-30T15:04:18.562Z,26.03
2024-04-30T15:06:46.305Z,26.08
2024-04-30T15:09:14.090Z,26.25
2024-04-30T15:11:41.701Z,26.09
2024-04-30T15:14:09.470Z,26.03
2024-04-30T15:16:43.885Z,26.14
2024-04-30T15:19:11.843Z,26.02
2024-04-30T15:21:43.665Z,26.01
2024-04-30T15:24:11.370Z,26.01
2024-04-30T15:26:39.628Z,26.08
2024-04-30T15:29:07.540Z,25.86
2024-04-30T15:31:35.185Z,25.75
2024-04-30T15:34:02.876Z,25.81
2024-04-30T15:36:30.471Z,25.75
2024-04-30T15:38:58.155Z,25.60
2024-04-30T15:41:25.747Z,25.44
2024-04-30T15:43:53.576Z,25.37
2024-04-30T15:46:21.282Z,25.35
2024-04-30T15:48:51.207Z,25.14
2024-04-30T15:51:19.532Z,25.24
2024-04-30T15:53:47.187Z,25.20
2024-04-30T15:56:17.747Z,25.17
2024-04-30T15:58:47.656Z,25.20
2024-04-30T16:01:16.082Z,25.21
2024-04-30T16:03:45.139Z,25.08
2024-04-30T16:06:14.424Z,25.04
2024-04-30T16:08:42.276Z,25.17
2024-04-30T16:11:11.618Z,25.01
2024-04-30T16:13:41.771Z,25.09
2024-04-30T16:16:16.433Z,25.02
2024-04-30T16:18:48.151Z,25.07
2024-04-30T16:21:17.074Z,25.01
2024-04-30T16:23:45.111Z,24.96
2024-04-30T16:26:12.905Z,24.94
2024-04-30T16:28:44.532Z,24.78
2024-04-30T16:31:15.361Z,24.63
2024-04-30T16:33:43.927Z,24.66
2024-04-30T16:36:21.348Z,24.66
2024-04-30T16:38:50.707Z,24.56
2024-04-30T16:41:18.468Z,24.27
2024-04-30T16:43:46.187Z,24.24
2024-04-30T16:46:13.826Z,24.11
2024-04-30T16:48:42.461Z,23.99
2024-04-30T16:51:14.445Z,23.93
2024-04-30T16:53:43.636Z,23.86
2024-04-30T16:56:12.170Z,23.76
2024-04-30T16:58:39.882Z,23.73
2024-04-30T17:01:07.757Z,23.65
2024-04-30T17:03:40.630Z,23.56
2024-04-30T17:06:12.345Z,23.56
2024-04-30T17:08:41.294Z,23.56
2024-04-30T17:11:11.057Z,23.51
2024-04-30T17:13:45.585Z,23.55
2024-04-30T17:16:23.720Z,23.51
2024-04-30T17:18:52.057Z,23.24
2024-04-30T17:21:23.003Z,23.16
2024-04-30T17:23:51.133Z,23.06
2024-04-30T17:26:26.546Z,23.21
2024-04-30T17:28:55.470Z,23.08
2024-04-30T17:31:23.364Z,22.98
2024-04-30T17:33:56.291Z,22.83
2024-04-30T17:36:24.348Z,22.84
2024-04-30T17:38:52.167Z,22.66
2024-04-30T17:41:27.679Z,22.46
2024-04-30T17:43:55.605Z,22.36
2024-04-30T17:46:26.244Z,22.45
2024-04-30T17:48:56.506Z,22.35
2024-04-30T17:51:28.612Z,22.28
2024-04-30T17:53:56.311Z,22.16
2024-04-30T17:56:23.918Z,22.14
2024-04-30T17:58:51.757Z,22.07
2024-04-30T18:01:20.050Z,21.89
2024-04-30T18:03:54.900Z,21.85
2024-04-30T18:06:23.426Z,21.75
2024-04-30T18:08:57.873Z,21.75
2024-04-30T18:11:26.752Z,21.59
2024-04-30T18:13:55.184Z,21.46
2024-04-30T18:16:23.170Z,21.40
2024-04-30T18:18:51.522Z,21.25
2024-04-30T18:21:20.450Z,21.09
2024-04-30T18:23:49.231Z,21.01
2024-04-30T18:26:16.954Z,20.97
2024-04-30T18:28:51.283Z,20.89
2024-04-30T18:31:19.491Z,20.82
2024-04-30T18:33:47.393Z,20.68
2024-04-30T18:36:15.307Z,20.62
2024-04-30T18:38:44.513Z,20.61
2024-04-30T18:41:24.214Z,20.57
2024-04-30T18:43:55.944Z,20.44
2024-04-30T18:46:23.615Z,20.31
2024-04-30T18:48:52.064Z,20.29
2024-04-30T18:51:20.527Z,20.19
2024-04-30T18:53:48.513Z,20.03
2024-04-30T18:56:18.933Z,20.11
2024-04-30T18:58:47.820Z,19.94
2024-04-30T19:01:18.768Z,20.09
2024-04-30T19:03:49.474Z,19.97
2024-04-30T19:06:21.592Z,19.91
2024-04-30T19:08:50.743Z,19.83
2024-04-30T19:11:18.822Z,19.96
2024-04-30T19:13:46.529Z,19.78
2024-04-30T19:16:14.752Z,19.87
2024-04-30T19:18:44.195Z,19.86
2024-04-30T19:21:12.903Z,19.86
2024-04-30T19:23:40.670Z,19.74
2024-04-30T19:26:14.424Z,19.54
2024-04-30T19:28:43.225Z,19.51
2024-04-30T19:31:17.388Z,19.44
2024-04-30T19:33:45.267Z,19.41
2024-04-30T19:36:20.548Z,19.51
2024-04-30T19:38:48.728Z,19.46
2024-04-30T19:41:17.345Z,19.51
2024-04-30T19:43:45.099Z,19.48
2024-04-30T19:46:14.801Z,19.51
2024-04-30T19:48:43.207Z,19.56
2024-04-30T19:51:10.946Z,19.53
2024-04-30T19:53:38.690Z,19.41
2024-04-30T19:56:06.769Z,19.39
2024-04-30T19:58:34.409Z,19.42
2024-04-30T20:01:02.005Z,19.44
2024-04-30T20:03:29.803Z,19.44
2024-04-30T20:05:57.701Z,19.33
2024-04-30T20:08:25.530Z,19.38
2024-04-30T20:10:53.156Z,19.34
2024-04-30T20:13:24.341Z,19.23
2024-04-30T20:15:52.075Z,19.37
2024-04-30T20:18:19.812Z,19.43
2024-04-30T20:20:47.610Z,19.37
2024-04-30T20:23:15.225Z,19.32
2024-04-30T20:25:43.335Z,19.29
2024-04-30T20:28:10.945Z,19.24
2024-04-30T20:30:38.657Z,19.24
2024-04-30T20:33:06.327Z,19.19
2024-04-30T20:35:34.116Z,19.18
2024-04-30T20:38:01.647Z,19.24
2024-04-30T20:40:29.498Z,19.20
2024-04-30T20:42:57.131Z,19.16
2024-04-30T20:45:24.873Z,19.16
2024-04-30T20:47:52.674Z,19.09
2024-04-30T20:50:20.451Z,18.97
2024-04-30T20:52:48.018Z,18.96
2024-04-30T20:55:15.669Z,18.85
2024-04-30T20:57:44.299Z,18.86
2024-04-30T21:00:12.729Z,18.85
2024-04-30T21:02:40.359Z,18.87
2024-04-30T21:05:08.071Z,18.75
2024-04-30T21:07:35.789Z,18.76
2024-04-30T21:10:03.702Z,18.73
2024-04-30T21:12:31.346Z,18.70
2024-04-30T21:14:58.971Z,18.68
2024-04-30T21:17:26.544Z,18.65
2024-04-30T21:19:57.382Z,18.64
2024-04-30T21:22:26.189Z,18.60
2024-04-30T21:24:53.798Z,18.61
2024-04-30T21:27:21.588Z,18.57
2024-04-30T21:29:49.216Z,18.50
2024-04-30T21:32:16.857Z,18.48
2024-04-30T21:34:45.038Z,18.34
2024-04-30T21:37:12.632Z,18.32
2024-04-30T21:39:40.334Z,18.27
2024-04-30T21:42:08.527Z,18.29
2024-04-30T21:44:36.080Z,18.15
2024-04-30T21:47:03.892Z,18.25
2024-04-30T21:49:31.518Z,18.18
2024-04-30T21:51:59.375Z,18.14
2024-04-30T21:54:27.091Z,18.07
2024-04-30T21:56:54.713Z,18.01
2024-04-30T21:59:22.365Z,17.98
2024-04-30T22:01:50.061Z,17.97
2024-04-30T22:04:20.406Z,17.97
2024-04-30T22:06:48.434Z,17.91
2024-04-30T22:09:15.987Z,17.91
2024-04-30T22:11:43.742Z,17.82
2024-04-30T22:14:11.289Z,17.75
2024-04-30T22:16:38.879Z,17.78
2024-04-30T22:19:06.513Z,17.70
2024-04-30T22:21:34.261Z,17.67
2024-04-30T22:24:01.971Z,17.58
2024-04-30T22:26:29.605Z,17.50
2024-04-30T22:28:57.204Z,17.43
2024-04-30T22:31:24.890Z,17.39
2024-04-30T22:33:52.639Z,17.34
2024-04-30T22:36:20.425Z,17.31
2024-04-30T22:38:48.006Z,17.32
2024-04-30T22:41:15.588Z,17.32
2024-04-30T22:43:43.269Z,17.33
2024-04-30T22:46:14.727Z,17.33
2024-04-30T22:48:43.417Z,17.43
2024-04-30T22:51:11.088Z,17.32
2024-04-30T22:53:47.209Z,17.37
2024-04-30T22:56:18.249Z,17.35
2024-04-30T22:58:45.906Z,17.34
2024-04-30T23:01:13.820Z,17.32
2024-04-30T23:03:41.547Z,17.24
2024-04-30T23:06:09.280Z,17.17
2024-04-30T23:08:39.788Z,17.09
2024-04-30T23:11:07.513Z,17.07
2024-04-30T23:13:35.202Z,16.96
2024-04-30T23:16:03.400Z,16.94
2024-04-30T23:18:31.340Z,16.97
2024-04-30T23:20:59.159Z,16.93
2024-04-30T23:23:26.657Z,16.87
2024-04-30T23:25:54.370Z,16.83
2024-04-30T23:28:21.950Z,16.83
2024-04-30T23:30:49.566Z,16.84
2024-04-30T23:33:17.228Z,16.80
2024-04-30T23:35:44.874Z,16.84
2024-04-30T23:38:12.591Z,16.83
2024-04-30T23:40:40.153Z,16.79
2024-04-30T23:43:07.882Z,16.79
2024-04-30T23:45:35.679Z,16.85
2024-04-30T23:48:03.361Z,16.87
2024-04-30T23:50:31.072Z,16.81
2024-04-30T23:52:58.575Z,16.81
2024-04-30T23:55:26.130Z,16.86
2024-04-30T23:57:54.441Z,16.89
